Time;durP1;ratioP1;P1;durP2;ratioP2;P2;SDS_P1;SDS_P2;PMS_P1;PMS_P2;Temp;Humidity;BMP_temperature;BMP_pressure;BME280_temperature;BME280_humidity;BME280_pressure;Samples;Min_cycle;Max_cycle;Signal;HPM_P1;HPM_P2
2021/06/11 11:46:57;;;;;;;25.50;18.42;;;;;;;18.58;72.98;99591.06;4924539;27;135425;-81
2021/06/11 11:49:23;;;;;;;25.60;17.77;;;;;;;18.66;73.60;99591.56;5027232;28;20042;-80
2021/06/11 11:51:49;;;;;;;22.27;15.90;;;;;;;18.86;73.73;99592.44;5034852;28;20041;-81
2021/06/11 11:54:16;;;;;;;20.67;15.85;;;;;;;19.06;73.76;99593.31;5070135;28;20033;-80
2021/06/11 11:56:42;;;;;;;19.05;15.43;;;;;;;19.33;73.72;99582.34;5071075;28;20049;-80
2021/06/11 11:59:08;;;;;;;19.40;14.18;;;;;;;19.67;73.33;99580.69;5070265;28;20020;-80
2021/06/11 12:01:39;;;;;;;20.08;15.82;;;;;;;19.84;72.14;99585.97;5052884;28;20037;-80
2021/06/11 12:04:05;;;;;;;18.80;15.05;;;;;;;19.88;71.28;99591.13;5066592;28;20045;-79
2021/06/11 12:06:32;;;;;;;16.35;13.15;;;;;;;19.50;70.42;99582.41;5052512;28;20112;-79
2021/06/11 12:08:58;;;;;;;20.20;14.60;;;;;;;19.17;71.73;99569.06;5035111;28;20097;-79
2021/06/11 12:11:24;;;;;;;20.10;15.20;;;;;;;19.32;71.90;99580.63;5059772;28;20065;-81
2021/06/11 12:13:50;;;;;;;21.08;16.70;;;;;;;19.30;71.27;99572.81;5069251;28;20037;-81
2021/06/11 12:16:16;;;;;;;26.38;17.52;;;;;;;19.35;72.29;99568.19;5052979;28;20033;-81
2021/06/11 12:18:42;;;;;;;27.40;20.73;;;;;;;19.44;72.10;99558.94;5070004;28;20097;-81
2021/06/11 12:21:09;;;;;;;22.20;18.00;;;;;;;19.46;70.74;99566.78;5062339;28;20052;-80
2021/06/11 12:23:38;;;;;;;18.65;14.63;;;;;;;19.44;71.08;99571.28;5053837;28;20155;-80
2021/06/11 12:26:04;;;;;;;19.27;14.90;;;;;;;19.27;71.00;99562.41;5052247;28;20045;-80
2021/06/11 12:28:30;;;;;;;18.20;14.35;;;;;;;19.22;71.30;99565.28;5052106;28;20523;-78
2021/06/11 12:30:56;;;;;;;22.67;17.02;;;;;;;19.31;71.51;99568.41;5056093;28;20037;-81
2021/06/11 12:33:22;;;;;;;20.17;16.58;;;;;;;19.36;71.42;99555.81;5031706;28;20095;-81
2021/06/11 12:35:48;;;;;;;21.65;16.83;;;;;;;19.63;72.20;99565.94;5030495;28;20501;-79
2021/06/11 12:38:15;;;;;;;18.42;15.65;;;;;;;19.90;71.80;99561.06;5060725;28;20500;-79
2021/06/11 12:40:44;;;;;;;20.38;14.35;;;;;;;20.25;71.71;99568.09;5045760;28;20496;-79
2021/06/11 12:43:15;;;;;;;21.33;14.90;;;;;;;20.36;70.15;99557.81;5030465;28;20045;-80
2021/06/11 12:45:42;;;;;;;20.23;15.82;;;;;;;20.19;70.23;99539.38;5040604;28;20054;-79
2021/06/11 12:48:11;;;;;;;18.48;14.75;;;;;;;20.43;70.27;99551.25;5029738;28;20065;-79
2021/06/11 12:50:39;;;;;;;20.80;14.63;;;;;;;20.54;69.78;99541.91;5029461;28;20038;-79
2021/06/11 12:53:05;;;;;;;14.82;12.93;;;;;;;20.72;69.36;99556.75;5039923;28;20037;-79
2021/06/11 12:55:35;;;;;;;18.15;12.73;;;;;;;20.54;69.18;99555.13;5013488;28;20065;-79
2021/06/11 12:58:01;;;;;;;16.90;13.45;;;;;;;20.22;68.39;99557.69;5032014;28;20473;-80
2021/06/11 13:00:27;;;;;;;16.20;12.23;;;;;;;20.12;69.03;99555.53;5015725;28;20160;-79
2021/06/11 13:02:53;;;;;;;18.80;13.45;;;;;;;20.20;69.05;99556.91;5029048;28;20045;-80
2021/06/11 13:05:26;;;;;;;17.02;12.10;;;;;;;20.19;69.23;99544.66;5035241;28;20048;-80
2021/06/11 13:07:52;;;;;;;15.90;11.63;;;;;;;20.34;69.44;99559.69;5007813;28;20053;-80
2021/06/11 13:10:19;;;;;;;13.73;11.88;;;;;;;20.39;68.97;99543.59;5030863;28;20420;-80
2021/06/11 13:12:45;;;;;;;14.63;12.15;;;;;;;20.32;68.31;99553.63;5032045;28;20037;-81
2021/06/11 13:15:12;;;;;;;17.40;11.93;;;;;;;20.21;68.76;99541.00;5013091;28;20069;-79
2021/06/11 13:17:39;;;;;;;16.85;12.00;;;;;;;20.21;68.75;99537.47;5017255;28;20041;-79
2021/06/11 13:20:06;;;;;;;14.25;11.55;;;;;;;20.23;67.67;99539.13;5022586;28;20061;-79
2021/06/11 13:22:33;;;;;;;16.20;12.48;;;;;;;19.93;68.30;99529.22;5034167;28;20099;-79
2021/06/11 13:24:59;;;;;;;16.77;12.25;;;;;;;19.82;68.01;99542.13;5032861;28;20231;-80
2021/06/11 13:27:25;;;;;;;15.82;13.15;;;;;;;19.73;69.17;99530.25;5033139;28;20042;-81
2021/06/11 13:29:51;;;;;;;18.45;14.65;;;;;;;19.92;69.00;99553.09;5032319;28;20176;-79
2021/06/11 13:32:18;;;;;;;17.35;13.27;;;;;;;19.85;68.88;99532.25;5048988;28;20076;-79
2021/06/11 13:34:43;;;;;;;14.25;12.85;;;;;;;19.95;69.51;99526.53;5015436;28;20125;-80
2021/06/11 13:37:10;;;;;;;14.60;12.77;;;;;;;20.15;68.82;99547.47;5031782;28;20056;-79
2021/06/11 13:39:36;;;;;;;13.68;12.20;;;;;;;20.35;69.57;99539.38;5032537;28;20041;-79
2021/06/11 13:42:02;;;;;;;17.58;13.15;;;;;;;20.45;68.91;99536.16;5015736;28;20054;-80
2021/06/11 13:44:28;;;;;;;15.50;13.18;;;;;;;20.61;68.80;99544.13;5012059;28;20419;-79
2021/06/11 13:46:54;;;;;;;14.23;12.43;;;;;;;20.69;68.43;99529.63;5013953;28;20203;-79
2021/06/11 13:49:20;;;;;;;14.73;12.30;;;;;;;20.89;68.46;99533.84;5013593;28;20247;-80
2021/06/11 13:51:46;;;;;;;13.68;11.75;;;;;;;20.91;68.09;99531.97;5015622;28;20057;-80
2021/06/11 13:54:12;;;;;;;13.88;11.65;;;;;;;21.09;68.08;99529.22;5013163;28;20547;-81
2021/06/11 13:56:37;;;;;;;13.80;11.60;;;;;;;21.37;68.23;99528.50;4996060;28;20049;-79
2021/06/11 13:59:03;;;;;;;12.13;10.88;;;;;;;21.58;67.38;99530.81;5026268;28;20124;-79
2021/06/11 14:01:29;;;;;;;12.77;11.30;;;;;;;21.40;66.80;99506.28;5032997;28;20124;-79
2021/06/11 14:03:55;;;;;;;13.27;10.57;;;;;;;21.40;66.95;99508.94;5033940;28;20472;-80
2021/06/11 14:06:21;;;;;;;11.93;10.35;;;;;;;21.36;66.10;99529.44;5014650;28;20523;-81
2021/06/11 14:08:47;;;;;;;15.43;12.00;;;;;;;21.06;66.06;99524.97;5046992;28;20045;-80
2021/06/11 14:11:13;;;;;;;13.32;11.57;;;;;;;20.97;66.73;99521.03;5015914;28;20139;-79
2021/06/11 14:13:39;;;;;;;14.07;11.35;;;;;;;21.11;66.67;99530.84;5033423;28;20500;-80
2021/06/11 14:16:05;;;;;;;12.63;10.82;;;;;;;21.12;66.48;99526.38;5030699;28;20527;-79
2021/06/11 14:18:31;;;;;;;12.40;10.77;;;;;;;21.24;66.44;99538.06;5032800;28;20045;-79
2021/06/11 14:20:57;;;;;;;14.38;10.85;;;;;;;21.18;66.08;99523.41;5033278;28;20033;-79
2021/06/11 14:23:23;;;;;;;12.75;10.85;;;;;;;21.20;65.99;99529.47;5032718;28;20041;-83
2021/06/11 14:25:48;;;;;;;13.23;11.25;;;;;;;21.11;66.02;99520.25;5030880;28;20049;-80
2021/06/11 14:28:16;;;;;;;11.48;10.27;;;;;;;21.10;66.42;99530.91;5021491;28;20080;-81
2021/06/11 14:30:46;;;;;;;11.48;10.38;;;;;;;20.91;66.15;99516.97;5011360;28;20065;-81
2021/06/11 14:33:14;;;;;;;11.07;9.98;;;;;;;20.86;66.33;99539.28;5020561;28;20048;-79
2021/06/11 14:35:40;;;;;;;11.77;10.52;;;;;;;20.45;66.39;99522.97;5031003;28;20110;-81
2021/06/11 14:38:06;;;;;;;12.27;11.07;;;;;;;20.37;66.95;99527.81;5028520;28;20102;-81
2021/06/11 14:40:33;;;;;;;15.10;10.98;;;;;;;20.37;67.53;99546.31;5014935;28;20380;-80
2021/06/11 14:43:00;;;;;;;12.35;10.48;;;;;;;20.34;68.12;99537.69;5031718;28;20033;-81
2021/06/11 14:45:26;;;;;;;11.48;10.32;;;;;;;20.35;68.40;99539.38;5032649;28;20053;-80
2021/06/11 14:47:52;;;;;;;12.80;11.10;;;;;;;20.26;68.17;99527.53;5031200;28;20057;-79
2021/06/11 14:50:18;;;;;;;14.13;10.70;;;;;;;20.20;68.88;99531.38;5014136;28;20659;-78
2021/06/11 14:52:48;;;;;;;14.05;11.50;;;;;;;19.95;69.04;99515.97;5031894;28;20037;-79
2021/06/11 14:55:15;;;;;;;14.57;12.20;;;;;;;19.99;69.69;99533.34;5031411;28;20489;-80
2021/06/11 14:57:43;;;;;;;13.23;11.60;;;;;;;20.01;69.84;99542.03;5013502;28;20150;-80
2021/06/11 15:00:12;;;;;;;12.70;11.38;;;;;;;19.94;69.98;99540.66;5042413;28;20044;-80
2021/06/11 15:02:40;;;;;;;13.90;11.75;;;;;;;19.85;70.44;99537.53;5036040;28;20093;-79
2021/06/11 15:05:07;;;;;;;15.23;12.48;;;;;;;19.78;70.42;99537.91;5043820;28;20037;-82
2021/06/11 15:07:33;;;;;;;21.23;14.25;;;;;;;19.67;70.90;99538.47;5040342;28;20100;-83
2021/06/11 15:09:59;;;;;;;18.48;14.70;;;;;;;19.36;70.94;99511.84;5039511;28;20034;-82
2021/06/11 15:12:29;;;;;;;22.67;16.08;;;;;;;19.44;71.78;99531.69;5039849;28;20523;-85
2021/06/11 15:14:57;;;;;;;18.75;15.70;;;;;;;19.13;72.29;99512.97;5017691;28;20046;-83
2021/06/11 15:17:27;;;;;;;17.58;13.93;;;;;;;19.05;72.04;99542.34;5038281;28;20052;-84
2021/06/11 15:19:55;;;;;;;16.48;13.40;;;;;;;18.83;73.19;99539.88;5038247;28;20049;-86
2021/06/11 15:22:20;;;;;;;15.32;12.18;;;;;;;18.57;73.78;99527.91;5032917;28;20057;-84
2021/06/11 15:24:49;;;;;;;17.75;12.93;;;;;;;18.50;74.07;99554.53;5015338;28;20108;-82
2021/06/11 15:27:15;;;;;;;25.30;17.75;;;;;;;17.99;73.65;99546.25;5015112;28;20042;-84
2021/06/11 15:29:41;;;;;;;27.83;20.73;;;;;;;17.73;75.43;99553.47;5025335;28;20548;-84
2021/06/11 15:32:10;;;;;;;34.95;22.73;;;;;;;17.40;75.72;99535.56;5020045;28;20449;-84
2021/06/11 15:34:36;;;;;;;36.90;25.33;;;;;;;17.33;76.15;99547.22;5020711;28;20103;-83
2021/06/11 15:37:03;;;;;;;45.25;30.92;;;;;;;17.09;77.36;99522.81;5021012;28;20050;-82
2021/06/11 15:39:29;;;;;;;56.90;34.90;;;;;;;17.29;78.38;99545.66;5036259;28;20089;-82
2021/06/11 15:41:55;;;;;;;46.33;31.77;;;;;;;17.44;78.88;99563.44;5009334;28;20046;-82
2021/06/11 15:44:21;;;;;;;36.88;24.15;;;;;;;17.43;78.53;99563.50;5022219;28;20539;-83
2021/06/11 15:46:48;;;;;;;30.35;20.85;;;;;;;17.30;79.36;99540.34;5023168;28;20073;-83
2021/06/11 15:49:14;;;;;;;16.73;14.63;;;;;;;17.18;78.84;99548.72;5020461;28;20065;-84
2021/06/11 15:51:43;;;;;;;31.63;20.83;;;;;;;17.25;79.99;99565.09;5043118;28;20512;-82
2021/06/11 15:54:13;;;;;;;35.53;20.63;;;;;;;17.15;79.85;99551.47;5041131;28;20133;-82
2021/06/11 15:56:39;;;;;;;23.83;16.52;;;;;;;17.08;80.04;99545.63;5052394;28;20093;-83
2021/06/11 15:59:06;;;;;;;22.42;16.73;;;;;;;17.07;80.04;99558.81;5052982;28;20174;-83
2021/06/11 16:01:33;;;;;;;21.85;18.15;;;;;;;17.02;80.40;99545.84;5051720;28;20044;-83
2021/06/11 16:03:59;;;;;;;24.88;18.25;;;;;;;17.06;81.21;99533.44;5037138;28;20084;-81
2021/06/11 16:06:25;;;;;;;30.05;19.25;;;;;;;17.13;81.03;99538.38;5054123;28;20121;-83
2021/06/11 16:08:51;;;;;;;21.15;16.23;;;;;;;17.23;81.38;99540.66;5046199;28;20042;-84
2021/06/11 16:11:17;;;;;;;24.02;15.85;;;;;;;17.28;81.52;99541.31;5019594;28;20586;-82
2021/06/11 16:13:42;;;;;;;21.75;17.38;;;;;;;17.25;81.51;99517.78;5034172;28;20041;-84
2021/06/11 16:16:08;;;;;;;27.50;18.35;;;;;;;17.36;81.62;99519.97;5021771;28;20029;-84
2021/06/11 16:18:35;;;;;;;25.73;18.35;;;;;;;17.38;82.04;99512.88;5029564;28;20093;-83
2021/06/11 16:21:01;;;;;;;26.30;18.48;;;;;;;17.54;82.16;99520.97;5035577;28;20076;-81
2021/06/11 16:23:26;;;;;;;21.88;16.30;;;;;;;17.61;82.11;99527.69;5032749;28;20377;-82
2021/06/11 16:25:52;;;;;;;31.67;19.75;;;;;;;17.62;82.16;99532.03;5031035;28;20052;-82
2021/06/11 16:28:19;;;;;;;24.02;17.55;;;;;;;17.48;82.08;99513.34;5012527;28;20071;-87
2021/06/11 16:30:45;;;;;;;25.17;17.92;;;;;;;17.59;82.40;99533.00;5013602;28;20121;-82
2021/06/11 16:33:10;;;;;;;25.65;18.88;;;;;;;17.58;82.80;99518.16;5015807;28;20070;-81
2021/06/11 16:35:38;;;;;;;26.50;19.23;;;;;;;17.70;82.87;99529.94;5014647;28;20500;-81
2021/06/11 16:38:06;;;;;;;26.58;18.85;;;;;;;17.74;82.84;99530.66;5014013;28;20101;-81
2021/06/11 16:40:33;;;;;;;28.83;20.77;;;;;;;17.72;82.64;99528.09;5031848;28;20501;-79
2021/06/11 16:42:59;;;;;;;32.63;22.20;;;;;;;17.73;82.73;99511.38;5003907;28;20101;-84
2021/06/11 16:45:26;;;;;;;30.45;21.60;;;;;;;17.76;83.17;99520.91;5014939;28;20125;-82
2021/06/11 16:47:53;;;;;;;25.00;19.23;;;;;;;17.75;83.26;99516.56;5027547;28;20485;-84
2021/06/11 16:50:20;;;;;;;24.98;19.20;;;;;;;17.90;82.87;99536.09;5035634;28;20041;-83
2021/06/11 16:52:47;;;;;;;25.90;19.58;;;;;;;17.90;83.29;99530.84;5033554;28;20053;-83
2021/06/11 16:55:13;;;;;;;26.60;18.98;;;;;;;17.95;83.23;99534.13;5035650;28;20041;-85
2021/06/11 16:57:40;;;;;;;26.08;17.80;;;;;;;18.00;83.45;99536.59;5034056;28;20052;-83
2021/06/11 17:00:09;;;;;;;25.88;19.50;;;;;;;17.75;83.31;99501.66;5038056;28;20063;-83
2021/06/11 17:02:35;;;;;;;20.83;16.63;;;;;;;18.04;83.46;99546.91;5005298;28;20075;-81
2021/06/11 17:05:01;;;;;;;26.20;18.77;;;;;;;17.92;83.28;99513.22;5014783;28;20501;-83
2021/06/11 17:07:29;;;;;;;23.45;18.77;;;;;;;17.91;83.30;99511.50;5022856;28;20050;-82
2021/06/11 17:09:56;;;;;;;24.17;17.35;;;;;;;18.03;83.56;99525.94;5022312;28;20046;-84
2021/06/11 17:12:25;;;;;;;22.20;17.50;;;;;;;18.11;83.63;99528.22;5037235;28;20064;-83
2021/06/11 17:15:03;;;;;;;20.42;16.98;;;;;;;18.18;83.78;99534.94;5035882;28;20029;-83
2021/06/11 17:17:40;;;;;;;21.67;16.38;;;;;;;18.18;83.85;99530.50;5031199;28;20049;-81
2021/06/11 17:20:07;;;;;;;20.10;16.52;;;;;;;18.16;83.62;99524.44;5029185;28;20038;-81
2021/06/11 17:22:38;;;;;;;20.23;15.75;;;;;;;17.81;83.58;99466.31;5026671;28;20113;-83
2021/06/11 17:25:04;;;;;;;22.48;17.27;;;;;;;18.11;83.65;99515.91;5052171;28;20061;-80
2021/06/11 17:27:30;;;;;;;19.15;15.70;;;;;;;18.06;83.74;99504.75;5034294;28;20041;-82
2021/06/11 17:29:56;;;;;;;18.40;16.15;;;;;;;17.94;83.66;99492.06;5033501;28;20122;-80
2021/06/11 17:32:23;;;;;;;18.25;14.80;;;;;;;17.93;83.61;99493.88;5032866;28;20045;-82
2021/06/11 17:34:54;;;;;;;20.63;17.67;;;;;;;17.97;83.52;99505.97;5033948;28;20463;-83
2021/06/11 17:37:29;;;;;;;20.08;16.80;;;;;;;17.99;83.20;99509.41;5011632;28;20049;-84
2021/06/11 17:40:00;;;;;;;20.15;16.02;;;;;;;17.80;83.15;99480.38;5009672;28;20066;-83
2021/06/11 17:42:27;;;;;;;20.60;16.48;;;;;;;17.82;83.23;99490.84;5015021;28;20125;-84
2021/06/11 17:44:56;;;;;;;20.15;16.55;;;;;;;17.84;83.38;99492.50;5015742;28;20049;-81
2021/06/11 17:47:23;;;;;;;19.63;16.38;;;;;;;17.89;83.67;99501.03;5029941;28;20095;-84
2021/06/11 17:49:50;;;;;;;22.00;17.52;;;;;;;17.96;83.22;99511.28;4979720;28;20456;-80
2021/06/11 17:52:18;;;;;;;19.00;16.20;;;;;;;17.97;83.65;99516.50;5018938;28;20048;-81
2021/06/11 17:54:45;;;;;;;24.15;17.15;;;;;;;17.93;83.51;99520.19;5032881;28;20087;-78
2021/06/11 17:57:12;;;;;;;25.80;19.88;;;;;;;17.82;82.25;99538.19;5034353;28;20613;-82
2021/06/11 17:59:40;;;;;;;37.28;25.50;;;;;;;17.56;82.47;99535.78;5034328;28;20049;-83
2021/06/11 18:02:16;;;;;;;30.83;22.83;;;;;;;17.39;83.02;99540.88;5009684;28;20475;-80
2021/06/11 18:04:45;;;;;;;34.17;24.85;;;;;;;17.21;83.57;99522.31;5022939;28;20038;-82
2021/06/11 18:07:17;;;;;;;35.60;26.15;;;;;;;17.24;83.78;99539.72;5032775;28;20128;-80
2021/06/11 18:09:45;;;;;;;38.25;26.05;;;;;;;16.96;83.55;99491.78;5028283;28;20458;-81
2021/06/11 18:12:21;;;;;;;34.70;21.83;;;;;;;17.11;83.68;99529.69;5033007;28;20135;-80
2021/06/11 18:15:01;;;;;;;34.13;24.77;;;;;;;17.02;83.83;99524.81;5026505;28;20072;-82
2021/06/11 18:17:30;;;;;;;31.33;23.35;;;;;;;16.90;84.25;99505.13;5013385;28;20045;-82
2021/06/11 18:19:57;;;;;;;23.83;18.02;;;;;;;17.01;84.17;99523.13;5029806;28;20037;-84
2021/06/11 18:22:41;;;;;;;31.10;21.98;;;;;;;17.00;84.37;99524.03;5016447;28;20132;-81
2021/06/11 18:25:33;;;;;;;29.83;22.52;;;;;;;16.86;83.96;99504.38;5031211;28;20099;-81
2021/06/11 18:28:32;;;;;;;43.78;28.13;;;;;;;16.85;84.45;99497.44;5029727;28;20057;-80
2021/06/11 18:31:14;;;;;;;48.33;32.65;;;;;;;17.02;84.53;99522.19;4999362;28;20037;-80
2021/06/11 18:33:47;;;;;;;51.55;36.13;;;;;;;17.00;84.41;99519.63;5031012;28;20596;-80
2021/06/11 18:36:19;;;;;;;42.95;31.67;;;;;;;16.96;83.85;99525.06;5014477;28;20478;-81
2021/06/11 18:38:49;;;;;;;30.27;23.42;;;;;;;16.93;84.02;99519.91;5026688;28;20045;-78
2021/06/11 18:41:31;;;;;;;30.88;21.88;;;;;;;16.85;84.14;99528.94;5023191;28;20045;-80
2021/06/11 18:44:05;;;;;;;42.25;30.08;;;;;;;16.73;84.25;99528.56;5033126;28;20420;-81
2021/06/11 18:46:33;;;;;;;28.88;20.80;;;;;;;16.70;84.28;99519.03;5032633;28;20057;-80
2021/06/11 18:49:01;;;;;;;16.38;12.90;;;;;;;16.71;84.39;99524.22;5033488;28;20041;-80
2021/06/11 18:51:27;;;;;;;16.08;12.60;;;;;;;16.74;84.81;99531.13;5015673;28;20090;-80
2021/06/11 18:53:56;;;;;;;14.65;11.93;;;;;;;16.70;84.24;99533.03;5048268;28;20080;-82
2021/06/11 18:56:40;;;;;;;14.85;11.80;;;;;;;16.54;83.81;99527.50;5030507;28;20124;-82
2021/06/11 18:59:21;;;;;;;15.60;11.90;;;;;;;16.62;84.82;99537.69;5031726;28;20114;-81
2021/06/11 19:01:52;;;;;;;12.18;9.73;;;;;;;16.58;84.44;99543.16;5030135;28;20039;-83
2021/06/11 19:04:21;;;;;;;11.68;9.38;;;;;;;16.42;83.94;99538.47;5013951;28;20056;-82
2021/06/11 19:07:01;;;;;;;13.25;9.25;;;;;;;16.34;84.10;99541.34;5046649;28;20129;-83
2021/06/11 19:09:36;;;;;;;14.15;9.98;;;;;;;16.33;84.27;99544.06;5029582;28;20041;-82
2021/06/11 19:12:12;;;;;;;11.82;9.20;;;;;;;16.22;84.16;99537.41;5013793;28;20041;-82
2021/06/11 19:14:38;;;;;;;14.30;10.10;;;;;;;16.22;84.18;99537.41;5014076;28;20042;-82
2021/06/11 19:17:07;;;;;;;18.27;10.73;;;;;;;16.08;84.07;99516.06;5025697;28;20041;-82
2021/06/11 19:19:51;;;;;;;14.18;10.82;;;;;;;16.20;84.39;99530.50;5020404;28;20076;-84
2021/06/11 19:22:26;;;;;;;12.88;10.23;;;;;;;16.16;84.31;99532.41;5041497;28;20095;-81
2021/06/11 19:25:01;;;;;;;13.35;10.60;;;;;;;15.95;83.95;99508.66;5032691;28;20042;-80
2021/06/11 19:27:44;;;;;;;16.75;12.38;;;;;;;15.95;84.16;99515.66;5032396;28;20088;-82
2021/06/11 19:30:26;;;;;;;13.85;11.18;;;;;;;16.00;84.46;99531.25;5016485;28;20045;-82
2021/06/11 19:33:00;;;;;;;13.52;9.52;;;;;;;15.99;84.49;99530.38;5016155;28;20065;-81
2021/06/11 19:35:47;;;;;;;13.25;8.95;;;;;;;15.93;84.37;99520.09;5033190;28;20041;-81
2021/06/11 19:38:19;;;;;;;12.65;8.00;;;;;;;15.92;83.99;99519.25;5013895;28;20042;-80
2021/06/11 19:40:46;;;;;;;;;;;;;;;15.90;84.31;99521.06;5021170;28;20179;-82
2021/06/11 19:43:30;;;;;;;9.85;8.02;;;;;;;15.77;83.88;99533.72;5030864;28;19920;-80
2021/06/11 19:45:58;;;;;;;13.65;9.02;;;;;;;15.66;83.69;99523.59;5027217;28;20429;-82
2021/06/11 19:48:24;;;;;;;10.38;8.63;;;;;;;15.62;83.82;99522.00;5012677;28;20125;-82
2021/06/11 19:50:53;;;;;;;10.15;7.75;;;;;;;15.66;84.42;99518.34;5026975;28;20483;-83
2021/06/11 19:53:40;;;;;;;10.55;8.30;;;;;;;15.85;84.57;99528.22;5007421;28;20065;-81
2021/06/11 19:56:15;;;;;;;11.43;8.35;;;;;;;15.90;84.26;99518.44;5049539;28;20396;-82
2021/06/11 19:58:46;;;;;;;10.27;8.65;;;;;;;15.91;84.08;99520.16;5016717;28;20049;-81
2021/06/11 20:01:19;;;;;;;11.68;8.27;;;;;;;15.87;83.92;99533.44;5032295;28;20045;-81
2021/06/11 20:03:48;;;;;;;11.57;8.35;;;;;;;15.79;84.11;99528.41;5034215;28;20054;-81
2021/06/11 20:06:17;;;;;;;9.75;7.97;;;;;;;15.73;83.98;99526.88;5034333;28;20110;-80
2021/06/11 20:08:44;;;;;;;11.13;9.15;;;;;;;15.63;83.94;99509.75;5036848;28;20464;-81
2021/06/11 20:11:11;;;;;;;11.30;8.98;;;;;;;15.69;83.70;99524.41;5035649;28;20124;-81
2021/06/11 20:13:38;;;;;;;11.60;9.68;;;;;;;15.65;83.98;99531.53;5036209;28;20056;-81
2021/06/11 20:16:04;;;;;;;11.32;8.48;;;;;;;15.52;83.78;99507.50;5016734;28;20523;-80
2021/06/11 20:18:32;;;;;;;11.02;9.20;;;;;;;15.59;83.95;99516.84;5034021;28;20056;-81
2021/06/11 20:21:00;;;;;;;11.57;9.25;;;;;;;15.60;83.66;99526.44;5035196;28;20053;-83
2021/06/11 20:23:27;;;;;;;15.88;9.90;;;;;;;15.61;83.59;99528.13;5034966;28;20094;-82
2021/06/11 20:25:57;;;;;;;12.07;9.20;;;;;;;15.48;83.53;99503.25;5034628;28;20041;-82
2021/06/11 20:28:23;;;;;;;11.35;8.63;;;;;;;15.65;84.00;99521.88;5034306;28;20037;-80
2021/06/11 20:30:50;;;;;;;11.55;9.85;;;;;;;15.70;83.58;99521.72;5018009;28;20041;-83
2021/06/11 20:33:16;;;;;;;13.65;9.65;;;;;;;15.80;84.09;99532.75;5035193;28;20091;-82
2021/06/11 20:35:47;;;;;;;11.10;8.35;;;;;;;15.90;84.12;99514.94;5017248;28;20037;-83
2021/06/11 20:38:13;;;;;;;13.15;9.93;;;;;;;15.94;83.67;99513.94;5033805;28;20135;-83
2021/06/11 20:40:38;;;;;;;10.80;9.13;;;;;;;15.95;83.81;99507.78;5031077;28;20137;-82
2021/06/11 20:43:04;;;;;;;11.52;9.48;;;;;;;15.99;83.74;99512.00;5017202;28;20045;-82
2021/06/11 20:45:30;;;;;;;11.45;8.88;;;;;;;15.95;83.63;99506.03;5033182;28;20133;-81
2021/06/11 20:47:59;;;;;;;11.73;8.65;;;;;;;15.79;83.59;99486.44;5013544;28;20611;-80
2021/06/11 20:50:25;;;;;;;13.35;8.95;;;;;;;15.90;83.33;99510.56;5014910;28;20125;-81
2021/06/11 20:52:50;;;;;;;11.32;9.20;;;;;;;15.74;83.35;99483.16;5041954;28;20106;-81
2021/06/11 20:55:17;;;;;;;13.55;10.43;;;;;;;15.87;83.13;99515.09;5035716;28;20466;-81
2021/06/11 20:57:43;;;;;;;11.77;9.75;;;;;;;15.68;83.48;99485.97;5034911;28;20094;-79
2021/06/11 21:00:13;;;;;;;13.73;10.75;;;;;;;15.89;83.33;99516.72;5036223;28;20076;-80
2021/06/11 21:02:40;;;;;;;16.03;10.33;;;;;;;15.93;83.44;99502.59;5034335;28;20416;-81
2021/06/11 21:05:09;;;;;;;13.13;10.30;;;;;;;15.89;83.41;99485.25;5035478;28;20071;-81
2021/06/11 21:07:37;;;;;;;13.65;10.50;;;;;;;15.98;82.85;99493.72;5036137;28;20044;-80
2021/06/11 21:10:08;;;;;;;11.40;9.63;;;;;;;16.13;83.15;99523.75;5036069;28;20116;-82
2021/06/11 21:12:39;;;;;;;11.05;9.27;;;;;;;16.11;83.05;99513.34;5030922;28;20452;-81
2021/06/11 21:15:07;;;;;;;11.15;9.82;;;;;;;16.18;83.07;99514.84;5005563;28;20059;-79
2021/06/11 21:17:34;;;;;;;11.95;9.63;;;;;;;16.25;83.07;99515.47;5033765;28;20527;-81
2021/06/11 21:19:59;;;;;;;12.70;9.88;;;;;;;16.29;82.92;99513.56;5016835;28;20041;-80
2021/06/11 21:22:27;;;;;;;11.98;9.70;;;;;;;16.22;82.52;99486.69;5036090;28;20118;-84
2021/06/11 21:24:53;;;;;;;10.52;9.15;;;;;;;16.34;82.75;99501.97;5022114;28;20100;-84
2021/06/11 21:27:20;;;;;;;14.63;9.60;;;;;;;15.61;81.98;99399.66;5038714;28;20463;-82
2021/06/11 21:29:46;;;;;;;10.95;9.40;;;;;;;15.95;82.45;99443.06;5038950;28;20053;-83
2021/06/11 21:32:12;;;;;;;10.90;9.18;;;;;;;16.33;82.56;99494.16;5037210;28;20516;-83
2021/06/11 21:34:38;;;;;;;10.82;9.18;;;;;;;16.20;82.34;99485.91;5036640;28;20041;-82
2021/06/11 21:37:05;;;;;;;11.70;9.18;;;;;;;16.26;82.51;99486.50;5036165;28;20443;-82
2021/06/11 21:39:31;;;;;;;11.38;9.07;;;;;;;16.15;82.21;99470.31;5028956;28;20049;-85
2021/06/11 21:41:57;;;;;;;13.27;10.13;;;;;;;16.29;82.07;99487.31;5031114;28;20408;-83
2021/06/11 21:44:23;;;;;;;11.05;8.80;;;;;;;16.26;81.97;99489.13;5018820;28;20041;-81
2021/06/11 21:46:51;;;;;;;11.95;9.00;;;;;;;16.21;82.05;99477.97;5035548;28;20073;-83
2021/06/11 21:49:17;;;;;;;12.90;9.32;;;;;;;16.21;82.23;99477.97;5035619;28;20171;-83
2021/06/11 21:51:46;;;;;;;10.82;8.98;;;;;;;16.15;81.93;99482.56;5016440;28;20047;-84
2021/06/11 21:54:14;;;;;;;14.18;9.38;;;;;;;16.19;81.67;99478.94;5035755;28;20049;-81
2021/06/11 21:56:40;;;;;;;11.88;8.70;;;;;;;16.29;81.86;99509.19;5039771;28;20044;-81
2021/06/11 21:59:06;;;;;;;10.75;8.57;;;;;;;16.30;81.99;99499.53;5041688;28;20124;-84
2021/06/11 22:01:32;;;;;;;13.35;9.65;;;;;;;16.19;81.61;99469.31;5034106;28;20140;-83
2021/06/11 22:03:59;;;;;;;14.32;9.88;;;;;;;16.21;81.55;99482.34;5033975;28;20037;-84
2021/06/11 22:06:25;;;;;;;11.25;9.40;;;;;;;16.34;81.73;99499.34;5036827;28;20045;-82
2021/06/11 22:08:52;;;;;;;11.85;9.38;;;;;;;16.27;81.75;99480.34;5035018;28;20068;-83
2021/06/11 22:11:18;;;;;;;11.82;9.77;;;;;;;16.41;81.48;99494.75;5038312;28;20041;-84
2021/06/11 22:13:45;;;;;;;11.73;8.90;;;;;;;16.35;81.54;99481.84;5028519;28;20038;-84
2021/06/11 22:16:13;;;;;;;12.35;9.05;;;;;;;16.32;81.48;99471.44;5031978;28;20099;-83
2021/06/11 22:18:40;;;;;;;11.52;9.30;;;;;;;16.32;80.92;99474.09;5022820;28;20052;-83
2021/06/11 22:21:08;;;;;;;11.27;8.93;;;;;;;16.31;81.58;99482.88;5032440;28;20425;-83
2021/06/11 22:23:34;;;;;;;11.43;8.77;;;;;;;16.26;81.73;99460.25;5036848;28;20045;-86
2021/06/11 22:26:01;;;;;;;12.50;9.55;;;;;;;16.33;81.41;99476.63;5045576;28;20069;-83
2021/06/11 22:28:27;;;;;;;12.13;9.07;;;;;;;16.23;80.56;99486.63;5015421;28;20041;-84
2021/06/11 22:30:54;;;;;;;12.27;8.95;;;;;;;16.19;81.25;99474.56;5029859;28;20130;-83
2021/06/11 22:33:23;;;;;;;11.63;8.68;;;;;;;16.26;81.51;99470.75;4999944;28;20045;-82
2021/06/11 22:35:49;;;;;;;12.15;9.27;;;;;;;15.91;81.45;99409.97;5031038;28;20049;-83
2021/06/11 22:38:17;;;;;;;11.85;8.75;;;;;;;16.20;81.34;99457.91;5040101;28;20041;-83
2021/06/11 22:40:43;;;;;;;14.05;10.48;;;;;;;16.39;81.39;99480.81;5023233;28;20069;-81
2021/06/11 22:43:10;;;;;;;12.55;9.68;;;;;;;16.41;81.25;99479.84;5021203;28;20093;-85
2021/06/11 22:45:37;;;;;;;14.48;10.18;;;;;;;16.39;81.39;99476.41;5021097;28;20112;-84
2021/06/11 22:48:04;;;;;;;11.80;9.63;;;;;;;16.42;81.17;99484.16;5010589;28;20068;-84
2021/06/11 22:50:32;;;;;;;14.32;10.90;;;;;;;16.33;81.10;99457.41;5032251;28;20041;-82
2021/06/11 22:53:07;;;;;;;13.25;10.50;;;;;;;16.45;80.68;99477.94;5040069;28;20047;-83
2021/06/11 22:55:33;;;;;;;12.32;10.43;;;;;;;16.28;81.08;99447.09;5045324;28;20024;-82
2021/06/11 22:58:07;;;;;;;15.00;10.88;;;;;;;16.35;80.91;99466.09;5054452;28;20025;-84
2021/06/11 23:00:39;;;;;;;14.25;10.90;;;;;;;16.28;80.18;99475.97;5051042;28;20052;-84
2021/06/11 23:03:08;;;;;;;;;;;;;;;16.29;80.95;99472.44;5050575;28;20037;-85
2021/06/11 23:05:35;;;;;;;11.55;8.80;;;;;;;16.33;81.08;99476.63;5055404;28;19909;-84
2021/06/11 23:08:01;;;;;;;13.13;10.63;;;;;;;16.23;81.07;99446.41;5056621;28;20052;-84
2021/06/11 23:10:27;;;;;;;14.25;10.00;;;;;;;16.44;81.00;99475.38;5036753;28;20092;-83